sensor_id;sensor_type;location;lat;lon;timestamp;temperature;humidity
14771;DHT22;7477;45.222;5.688;2024-01-25T00:00:04;8.60;99.90
14771;DHT22;7477;45.222;5.688;2024-01-25T00:03:24;8.60;99.90
14771;DHT22;7477;45.222;5.688;2024-01-25T00:06:43;8.50;99.90
14771;DHT22;7477;45.222;5.688;2024-01-25T00:10:05;8.50;99.90
14771;DHT22;7477;45.222;5.688;2024-01-25T00:13:26;8.40;99.90
14771;DHT22;7477;45.222;5.688;2024-01-25T00:16:45;8.40;99.90
14771;DHT22;7477;45.222;5.688;2024-01-25T00:20:04;8.30;99.90
14771;DHT22;7477;45.222;5.688;2024-01-25T00:23:24;8.30;99.90
14771;DHT22;7477;45.222;5.688;2024-01-25T00:26:44;8.30;99.90
14771;DHT22;7477;45.222;5.688;2024-01-25T00:30:03;8.20;99.90
14771;DHT22;7477;45.222;5.688;2024-01-25T00:33:23;8.20;99.90
14771;DHT22;7477;45.222;5.688;2024-01-25T00:36:43;8.10;99.90
14771;DHT22;7477;45.222;5.688;2024-01-25T00:40:03;8.10;99.90
14771;DHT22;7477;45.222;5.688;2024-01-25T00:43:23;8.10;99.90
14771;DHT22;7477;45.222;5.688;2024-01-25T00:46:43;8.00;99.90
14771;DHT22;7477;45.222;5.688;2024-01-25T00:50:03;8.00;99.90
14771;DHT22;7477;45.222;5.688;2024-01-25T00:53:23;7.90;99.90
14771;DHT22;7477;45.222;5.688;2024-01-25T00:56:43;8.00;99.90
14771;DHT22;7477;45.222;5.688;2024-01-25T01:00:03;8.00;99.90
14771;DHT22;7477;45.222;5.688;2024-01-25T01:03:24;8.00;99.90
14771;DHT22;7477;45.222;5.688;2024-01-25T01:06:43;8.00;99.90
14771;DHT22;7477;45.222;5.688;2024-01-25T01:10:06;8.00;99.90
14771;DHT22;7477;45.222;5.688;2024-01-25T01:13:26;7.90;99.90
14771;DHT22;7477;45.222;5.688;2024-01-25T01:16:46;7.90;99.90
14771;DHT22;7477;45.222;5.688;2024-01-25T01:20:06;7.90;99.90
14771;DHT22;7477;45.222;5.688;2024-01-25T01:23:25;8.00;99.90
14771;DHT22;7477;45.222;5.688;2024-01-25T01:26:44;8.00;99.90
14771;DHT22;7477;45.222;5.688;2024-01-25T01:30:05;8.00;99.90
14771;DHT22;7477;45.222;5.688;2024-01-25T01:33:27;7.90;99.90
14771;DHT22;7477;45.222;5.688;2024-01-25T01:36:46;8.00;99.90
14771;DHT22;7477;45.222;5.688;2024-01-25T01:40:06;7.90;99.90
14771;DHT22;7477;45.222;5.688;2024-01-25T01:43:25;7.90;99.90
14771;DHT22;7477;45.222;5.688;2024-01-25T01:46:44;7.90;99.90
14771;DHT22;7477;45.222;5.688;2024-01-25T01:50:05;7.80;99.90
14771;DHT22;7477;45.222;5.688;2024-01-25T01:53:25;7.80;99.90
14771;DHT22;7477;45.222;5.688;2024-01-25T01:56:45;7.80;99.90
14771;DHT22;7477;45.222;5.688;2024-01-25T02:00:08;7.80;99.90
14771;DHT22;7477;45.222;5.688;2024-01-25T02:03:28;7.80;99.90
14771;DHT22;7477;45.222;5.688;2024-01-25T02:06:47;7.70;99.90
14771;DHT22;7477;45.222;5.688;2024-01-25T02:10:08;7.80;99.90
14771;DHT22;7477;45.222;5.688;2024-01-25T02:13:27;7.80;99.90
14771;DHT22;7477;45.222;5.688;2024-01-25T02:16:46;7.80;99.90
14771;DHT22;7477;45.222;5.688;2024-01-25T02:20:06;7.90;99.90
14771;DHT22;7477;45.222;5.688;2024-01-25T02:23:25;7.90;99.90
14771;DHT22;7477;45.222;5.688;2024-01-25T02:26:45;7.90;99.90
14771;DHT22;7477;45.222;5.688;2024-01-25T02:30:06;8.00;99.90
14771;DHT22;7477;45.222;5.688;2024-01-25T02:33:26;8.00;99.90
14771;DHT22;7477;45.222;5.688;2024-01-25T02:36:45;8.00;99.90
14771;DHT22;7477;45.222;5.688;2024-01-25T02:40:04;8.00;99.90
14771;DHT22;7477;45.222;5.688;2024-01-25T02:43:24;8.00;99.90
14771;DHT22;7477;45.222;5.688;2024-01-25T02:46:43;8.00;99.90
14771;DHT22;7477;45.222;5.688;2024-01-25T02:50:04;8.10;99.90
14771;DHT22;7477;45.222;5.688;2024-01-25T02:53:24;8.10;99.90
14771;DHT22;7477;45.222;5.688;2024-01-25T02:56:43;8.10;99.90
14771;DHT22;7477;45.222;5.688;2024-01-25T03:00:03;8.00;99.90
14771;DHT22;7477;45.222;5.688;2024-01-25T03:03:23;8.00;99.90
14771;DHT22;7477;45.222;5.688;2024-01-25T03:06:45;8.00;99.90
14771;DHT22;7477;45.222;5.688;2024-01-25T03:10:05;8.00;99.90
14771;DHT22;7477;45.222;5.688;2024-01-25T03:13:24;8.10;99.90
14771;DHT22;7477;45.222;5.688;2024-01-25T03:16:43;8.10;99.90
14771;DHT22;7477;45.222;5.688;2024-01-25T03:20:03;8.10;99.90
14771;DHT22;7477;45.222;5.688;2024-01-25T03:23:22;8.10;99.90
14771;DHT22;7477;45.222;5.688;2024-01-25T03:26:41;8.10;99.90
14771;DHT22;7477;45.222;5.688;2024-01-25T03:30:01;8.10;99.90
14771;DHT22;7477;45.222;5.688;2024-01-25T03:33:20;8.10;99.90
14771;DHT22;7477;45.222;5.688;2024-01-25T03:36:39;8.10;99.90
14771;DHT22;7477;45.222;5.688;2024-01-25T03:39:59;8.10;99.90
14771;DHT22;7477;45.222;5.688;2024-01-25T03:43:18;8.20;99.90
14771;DHT22;7477;45.222;5.688;2024-01-25T03:46:37;8.30;99.90
14771;DHT22;7477;45.222;5.688;2024-01-25T03:49:56;8.30;99.90
14771;DHT22;7477;45.222;5.688;2024-01-25T03:53:15;8.40;99.90
14771;DHT22;7477;45.222;5.688;2024-01-25T03:56:35;8.40;99.90
14771;DHT22;7477;45.222;5.688;2024-01-25T03:59:54;8.30;99.90
14771;DHT22;7477;45.222;5.688;2024-01-25T04:03:14;8.30;99.90
14771;DHT22;7477;45.222;5.688;2024-01-25T04:06:33;8.40;99.90
14771;DHT22;7477;45.222;5.688;2024-01-25T04:09:53;8.40;99.90
14771;DHT22;7477;45.222;5.688;2024-01-25T04:13:12;8.40;99.90
14771;DHT22;7477;45.222;5.688;2024-01-25T04:16:32;8.40;99.90
14771;DHT22;7477;45.222;5.688;2024-01-25T04:19:51;8.40;99.90
14771;DHT22;7477;45.222;5.688;2024-01-25T04:23:10;8.40;99.90
14771;DHT22;7477;45.222;5.688;2024-01-25T04:26:30;8.40;99.90
14771;DHT22;7477;45.222;5.688;2024-01-25T04:29:49;8.40;99.90
14771;DHT22;7477;45.222;5.688;2024-01-25T04:33:08;8.40;99.90
14771;DHT22;7477;45.222;5.688;2024-01-25T04:36:27;8.40;99.90
14771;DHT22;7477;45.222;5.688;2024-01-25T04:39:46;8.40;99.90
14771;DHT22;7477;45.222;5.688;2024-01-25T04:43:05;8.40;99.90
14771;DHT22;7477;45.222;5.688;2024-01-25T04:46:25;8.40;99.90
14771;DHT22;7477;45.222;5.688;2024-01-25T04:49:45;8.50;99.90
14771;DHT22;7477;45.222;5.688;2024-01-25T04:53:05;8.50;99.90
14771;DHT22;7477;45.222;5.688;2024-01-25T04:56:23;8.50;99.90
14771;DHT22;7477;45.222;5.688;2024-01-25T04:59:43;8.50;99.90
14771;DHT22;7477;45.222;5.688;2024-01-25T05:03:02;8.40;99.90
14771;DHT22;7477;45.222;5.688;2024-01-25T05:06:21;8.40;99.90
14771;DHT22;7477;45.222;5.688;2024-01-25T05:09:40;8.40;99.90
14771;DHT22;7477;45.222;5.688;2024-01-25T05:13:00;8.40;99.90
14771;DHT22;7477;45.222;5.688;2024-01-25T05:16:19;8.40;99.90
14771;DHT22;7477;45.222;5.688;2024-01-25T05:19:38;8.50;99.90
14771;DHT22;7477;45.222;5.688;2024-01-25T05:22:57;8.40;99.90
14771;DHT22;7477;45.222;5.688;2024-01-25T05:26:17;8.40;99.90
14771;DHT22;7477;45.222;5.688;2024-01-25T05:29:37;8.40;99.90
14771;DHT22;7477;45.222;5.688;2024-01-25T05:32:56;8.40;99.90
14771;DHT22;7477;45.222;5.688;2024-01-25T05:36:15;8.40;99.90
14771;DHT22;7477;45.222;5.688;2024-01-25T05:39:35;8.30;99.90
14771;DHT22;7477;45.222;5.688;2024-01-25T05:42:57;8.30;99.90
14771;DHT22;7477;45.222;5.688;2024-01-25T05:46:19;8.30;99.90
14771;DHT22;7477;45.222;5.688;2024-01-25T05:49:38;8.30;99.90
14771;DHT22;7477;45.222;5.688;2024-01-25T05:52:59;8.20;99.90
14771;DHT22;7477;45.222;5.688;2024-01-25T05:56:18;8.20;99.90
14771;DHT22;7477;45.222;5.688;2024-01-25T05:59:37;8.20;99.90
14771;DHT22;7477;45.222;5.688;2024-01-25T06:02:57;8.20;99.90
14771;DHT22;7477;45.222;5.688;2024-01-25T06:06:16;8.20;99.90
14771;DHT22;7477;45.222;5.688;2024-01-25T06:09:35;8.10;99.90
14771;DHT22;7477;45.222;5.688;2024-01-25T06:12:54;8.10;99.90
14771;DHT22;7477;45.222;5.688;2024-01-25T06:16:13;8.10;99.90
14771;DHT22;7477;45.222;5.688;2024-01-25T06:19:32;8.00;99.90
14771;DHT22;7477;45.222;5.688;2024-01-25T06:22:53;8.00;99.90
14771;DHT22;7477;45.222;5.688;2024-01-25T06:26:12;8.00;99.90
14771;DHT22;7477;45.222;5.688;2024-01-25T06:29:32;8.00;99.90
14771;DHT22;7477;45.222;5.688;2024-01-25T06:32:51;7.90;99.90
14771;DHT22;7477;45.222;5.688;2024-01-25T06:36:10;7.90;99.90
14771;DHT22;7477;45.222;5.688;2024-01-25T06:39:30;7.90;99.90
14771;DHT22;7477;45.222;5.688;2024-01-25T06:42:49;8.00;99.90
14771;DHT22;7477;45.222;5.688;2024-01-25T06:46:08;8.00;99.90
14771;DHT22;7477;45.222;5.688;2024-01-25T06:49:27;7.90;99.90
14771;DHT22;7477;45.222;5.688;2024-01-25T06:52:46;7.90;99.90
14771;DHT22;7477;45.222;5.688;2024-01-25T06:56:06;7.90;99.90
14771;DHT22;7477;45.222;5.688;2024-01-25T06:59:26;7.90;99.90
14771;DHT22;7477;45.222;5.688;2024-01-25T07:02:45;7.90;99.90
14771;DHT22;7477;45.222;5.688;2024-01-25T07:06:04;7.90;99.90
14771;DHT22;7477;45.222;5.688;2024-01-25T07:09:23;7.90;99.90
14771;DHT22;7477;45.222;5.688;2024-01-25T07:12:42;7.90;99.90
14771;DHT22;7477;45.222;5.688;2024-01-25T07:16:01;7.90;99.90
14771;DHT22;7477;45.222;5.688;2024-01-25T07:19:21;8.00;99.90
14771;DHT22;7477;45.222;5.688;2024-01-25T07:22:40;8.00;99.90
14771;DHT22;7477;45.222;5.688;2024-01-25T07:26:00;8.00;99.90
14771;DHT22;7477;45.222;5.688;2024-01-25T07:29:19;8.00;99.90
14771;DHT22;7477;45.222;5.688;2024-01-25T07:32:39;8.00;99.90
14771;DHT22;7477;45.222;5.688;2024-01-25T07:36:00;8.00;99.90
14771;DHT22;7477;45.222;5.688;2024-01-25T07:39:20;8.10;99.90
14771;DHT22;7477;45.222;5.688;2024-01-25T07:42:39;8.10;99.90
14771;DHT22;7477;45.222;5.688;2024-01-25T07:45:58;8.10;99.90
14771;DHT22;7477;45.222;5.688;2024-01-25T07:49:17;8.10;99.90
14771;DHT22;7477;45.222;5.688;2024-01-25T07:52:36;8.20;99.90
14771;DHT22;7477;45.222;5.688;2024-01-25T07:55:55;8.20;99.90
14771;DHT22;7477;45.222;5.688;2024-01-25T07:59:15;8.30;99.90
14771;DHT22;7477;45.222;5.688;2024-01-25T08:02:34;8.30;99.90
14771;DHT22;7477;45.222;5.688;2024-01-25T08:05:54;8.30;99.90
14771;DHT22;7477;45.222;5.688;2024-01-25T08:09:13;8.30;99.90
14771;DHT22;7477;45.222;5.688;2024-01-25T08:12:33;8.30;99.90
14771;DHT22;7477;45.222;5.688;2024-01-25T08:15:53;8.30;99.90
14771;DHT22;7477;45.222;5.688;2024-01-25T08:19:12;8.30;99.90
14771;DHT22;7477;45.222;5.688;2024-01-25T08:22:31;8.40;99.90
14771;DHT22;7477;45.222;5.688;2024-01-25T08:25:51;8.40;99.90
14771;DHT22;7477;45.222;5.688;2024-01-25T08:29:10;8.50;99.90
14771;DHT22;7477;45.222;5.688;2024-01-25T08:32:30;8.50;99.90
14771;DHT22;7477;45.222;5.688;2024-01-25T08:35:49;8.60;99.90
14771;DHT22;7477;45.222;5.688;2024-01-25T08:39:08;8.60;99.90
14771;DHT22;7477;45.222;5.688;2024-01-25T08:42:28;8.60;99.90
14771;DHT22;7477;45.222;5.688;2024-01-25T08:45:47;8.70;99.90
14771;DHT22;7477;45.222;5.688;2024-01-25T08:49:06;8.70;99.90
14771;DHT22;7477;45.222;5.688;2024-01-25T08:52:27;8.70;99.90
14771;DHT22;7477;45.222;5.688;2024-01-25T08:55:47;8.70;99.90
14771;DHT22;7477;45.222;5.688;2024-01-25T08:59:06;8.70;99.90
14771;DHT22;7477;45.222;5.688;2024-01-25T09:02:26;8.70;99.90
14771;DHT22;7477;45.222;5.688;2024-01-25T09:05:46;8.70;99.90
14771;DHT22;7477;45.222;5.688;2024-01-25T09:09:06;8.70;99.90
14771;DHT22;7477;45.222;5.688;2024-01-25T09:12:25;8.70;99.90
14771;DHT22;7477;45.222;5.688;2024-01-25T09:15:44;8.70;99.90
14771;DHT22;7477;45.222;5.688;2024-01-25T09:19:05;8.80;99.90
14771;DHT22;7477;45.222;5.688;2024-01-25T09:22:25;8.80;99.90
14771;DHT22;7477;45.222;5.688;2024-01-25T09:25:45;8.80;99.90
14771;DHT22;7477;45.222;5.688;2024-01-25T09:29:04;8.90;99.90
14771;DHT22;7477;45.222;5.688;2024-01-25T09:32:23;8.90;99.90
14771;DHT22;7477;45.222;5.688;2024-01-25T09:35:42;8.90;99.90
14771;DHT22;7477;45.222;5.688;2024-01-25T09:39:05;8.90;99.90
14771;DHT22;7477;45.222;5.688;2024-01-25T09:42:24;8.90;99.90
14771;DHT22;7477;45.222;5.688;2024-01-25T09:45:44;9.00;99.90
14771;DHT22;7477;45.222;5.688;2024-01-25T09:49:04;9.00;99.90
14771;DHT22;7477;45.222;5.688;2024-01-25T09:52:24;9.00;99.90
14771;DHT22;7477;45.222;5.688;2024-01-25T09:55:45;9.00;99.90
14771;DHT22;7477;45.222;5.688;2024-01-25T09:59:06;9.00;99.90
14771;DHT22;7477;45.222;5.688;2024-01-25T10:02:26;9.00;99.90
14771;DHT22;7477;45.222;5.688;2024-01-25T10:05:45;9.00;99.90
14771;DHT22;7477;45.222;5.688;2024-01-25T10:09:04;9.00;99.90
14771;DHT22;7477;45.222;5.688;2024-01-25T10:12:27;9.00;99.90
14771;DHT22;7477;45.222;5.688;2024-01-25T10:15:46;9.00;99.90
14771;DHT22;7477;45.222;5.688;2024-01-25T10:19:07;9.00;99.90
14771;DHT22;7477;45.222;5.688;2024-01-25T10:22:29;9.00;99.90
14771;DHT22;7477;45.222;5.688;2024-01-25T10:25:48;9.00;99.90
14771;DHT22;7477;45.222;5.688;2024-01-25T10:29:08;9.00;99.90
14771;DHT22;7477;45.222;5.688;2024-01-25T10:32:27;9.00;99.90
14771;DHT22;7477;45.222;5.688;2024-01-25T10:35:47;9.00;99.90
14771;DHT22;7477;45.222;5.688;2024-01-25T10:39:09;9.10;99.90
14771;DHT22;7477;45.222;5.688;2024-01-25T10:42:28;9.10;99.90
14771;DHT22;7477;45.222;5.688;2024-01-25T10:45:47;9.20;99.90
14771;DHT22;7477;45.222;5.688;2024-01-25T10:49:07;9.20;99.90
14771;DHT22;7477;45.222;5.688;2024-01-25T10:52:27;9.30;99.90
14771;DHT22;7477;45.222;5.688;2024-01-25T10:55:47;9.40;99.90
14771;DHT22;7477;45.222;5.688;2024-01-25T10:59:06;9.40;99.90
14771;DHT22;7477;45.222;5.688;2024-01-25T11:02:26;9.30;99.90
14771;DHT22;7477;45.222;5.688;2024-01-25T11:05:46;9.40;99.90
14771;DHT22;7477;45.222;5.688;2024-01-25T11:09:07;9.30;99.90
14771;DHT22;7477;45.222;5.688;2024-01-25T11:12:26;9.40;99.90
14771;DHT22;7477;45.222;5.688;2024-01-25T11:15:45;9.80;99.90
14771;DHT22;7477;45.222;5.688;2024-01-25T11:19:05;9.60;99.90
14771;DHT22;7477;45.222;5.688;2024-01-25T11:22:35;9.70;99.90
14771;DHT22;7477;45.222;5.688;2024-01-25T11:25:54;9.90;99.90
14771;DHT22;7477;45.222;5.688;2024-01-25T11:29:18;9.80;99.90
14771;DHT22;7477;45.222;5.688;2024-01-25T11:32:39;9.50;99.90
14771;DHT22;7477;45.222;5.688;2024-01-25T11:35:59;9.80;99.90
14771;DHT22;7477;45.222;5.688;2024-01-25T11:39:18;9.60;99.90
14771;DHT22;7477;45.222;5.688;2024-01-25T11:42:38;9.70;99.90
14771;DHT22;7477;45.222;5.688;2024-01-25T11:45:57;9.60;99.90
14771;DHT22;7477;45.222;5.688;2024-01-25T11:49:16;9.80;99.90
14771;DHT22;7477;45.222;5.688;2024-01-25T11:52:35;9.80;99.90
14771;DHT22;7477;45.222;5.688;2024-01-25T11:55:55;9.70;99.90
14771;DHT22;7477;45.222;5.688;2024-01-25T11:59:16;9.60;99.90
14771;DHT22;7477;45.222;5.688;2024-01-25T12:02:36;9.80;99.90
14771;DHT22;7477;45.222;5.688;2024-01-25T12:05:56;9.70;99.90
14771;DHT22;7477;45.222;5.688;2024-01-25T12:09:18;9.90;99.90
14771;DHT22;7477;45.222;5.688;2024-01-25T12:12:37;10.40;99.90
14771;DHT22;7477;45.222;5.688;2024-01-25T12:15:57;10.30;99.90
14771;DHT22;7477;45.222;5.688;2024-01-25T12:19:16;10.30;99.90
14771;DHT22;7477;45.222;5.688;2024-01-25T12:22:36;10.40;99.90
14771;DHT22;7477;45.222;5.688;2024-01-25T12:25:55;10.50;99.90
14771;DHT22;7477;45.222;5.688;2024-01-25T12:29:14;10.60;99.90
14771;DHT22;7477;45.222;5.688;2024-01-25T12:32:34;10.50;99.90
14771;DHT22;7477;45.222;5.688;2024-01-25T12:35:53;10.70;99.90
14771;DHT22;7477;45.222;5.688;2024-01-25T12:39:13;10.30;99.90
14771;DHT22;7477;45.222;5.688;2024-01-25T12:42:33;10.50;99.90
14771;DHT22;7477;45.222;5.688;2024-01-25T12:45:52;10.50;99.90
14771;DHT22;7477;45.222;5.688;2024-01-25T12:49:11;10.50;99.90
14771;DHT22;7477;45.222;5.688;2024-01-25T12:52:31;11.00;99.90
14771;DHT22;7477;45.222;5.688;2024-01-25T12:55:50;10.90;99.90
14771;DHT22;7477;45.222;5.688;2024-01-25T12:59:11;10.70;99.90
14771;DHT22;7477;45.222;5.688;2024-01-25T13:02:30;10.70;99.90
14771;DHT22;7477;45.222;5.688;2024-01-25T13:05:49;10.90;99.90
14771;DHT22;7477;45.222;5.688;2024-01-25T13:09:08;10.50;99.90
14771;DHT22;7477;45.222;5.688;2024-01-25T13:12:27;10.80;99.90
14771;DHT22;7477;45.222;5.688;2024-01-25T13:15:46;10.90;99.90
14771;DHT22;7477;45.222;5.688;2024-01-25T13:19:06;10.70;99.90
14771;DHT22;7477;45.222;5.688;2024-01-25T13:22:26;10.30;99.90
14771;DHT22;7477;45.222;5.688;2024-01-25T13:25:46;10.60;99.90
14771;DHT22;7477;45.222;5.688;2024-01-25T13:29:05;10.40;99.90
14771;DHT22;7477;45.222;5.688;2024-01-25T13:32:24;11.00;99.90
14771;DHT22;7477;45.222;5.688;2024-01-25T13:35:44;10.80;99.90
14771;DHT22;7477;45.222;5.688;2024-01-25T13:39:04;10.70;99.90
14771;DHT22;7477;45.222;5.688;2024-01-25T13:42:23;11.10;99.90
14771;DHT22;7477;45.222;5.688;2024-01-25T13:45:42;10.90;99.90
14771;DHT22;7477;45.222;5.688;2024-01-25T13:49:01;11.30;99.90
14771;DHT22;7477;45.222;5.688;2024-01-25T13:52:20;11.60;99.90
14771;DHT22;7477;45.222;5.688;2024-01-25T13:55:40;11.30;99.90
14771;DHT22;7477;45.222;5.688;2024-01-25T13:58:59;12.00;99.90
14771;DHT22;7477;45.222;5.688;2024-01-25T14:02:18;11.80;99.90
14771;DHT22;7477;45.222;5.688;2024-01-25T14:05:37;12.20;99.90
14771;DHT22;7477;45.222;5.688;2024-01-25T14:08:56;11.90;99.90
14771;DHT22;7477;45.222;5.688;2024-01-25T14:12:15;12.30;99.90
14771;DHT22;7477;45.222;5.688;2024-01-25T14:15:35;12.60;99.90
14771;DHT22;7477;45.222;5.688;2024-01-25T14:18:54;12.70;99.90
14771;DHT22;7477;45.222;5.688;2024-01-25T14:22:13;12.80;99.90
14771;DHT22;7477;45.222;5.688;2024-01-25T14:25:32;12.80;99.90
14771;DHT22;7477;45.222;5.688;2024-01-25T14:28:51;12.50;99.90
14771;DHT22;7477;45.222;5.688;2024-01-25T14:32:10;12.50;99.90
14771;DHT22;7477;45.222;5.688;2024-01-25T14:35:29;12.10;99.90
14771;DHT22;7477;45.222;5.688;2024-01-25T14:38:49;12.10;99.90
14771;DHT22;7477;45.222;5.688;2024-01-25T14:42:12;12.60;99.90
14771;DHT22;7477;45.222;5.688;2024-01-25T14:45:31;12.70;99.90
14771;DHT22;7477;45.222;5.688;2024-01-25T14:48:52;12.80;99.90
14771;DHT22;7477;45.222;5.688;2024-01-25T14:52:11;12.90;99.90
14771;DHT22;7477;45.222;5.688;2024-01-25T14:55:30;12.90;99.90
14771;DHT22;7477;45.222;5.688;2024-01-25T14:58:49;13.00;99.90
14771;DHT22;7477;45.222;5.688;2024-01-25T15:02:08;13.00;99.90
14771;DHT22;7477;45.222;5.688;2024-01-25T15:05:28;13.00;99.90
14771;DHT22;7477;45.222;5.688;2024-01-25T15:08:47;13.10;99.90
14771;DHT22;7477;45.222;5.688;2024-01-25T15:12:08;13.00;99.90
14771;DHT22;7477;45.222;5.688;2024-01-25T15:15:27;12.70;99.90
14771;DHT22;7477;45.222;5.688;2024-01-25T15:18:47;12.50;99.90
14771;DHT22;7477;45.222;5.688;2024-01-25T15:22:06;12.40;99.90
14771;DHT22;7477;45.222;5.688;2024-01-25T15:25:26;12.20;99.90
14771;DHT22;7477;45.222;5.688;2024-01-25T15:28:45;11.80;99.90
14771;DHT22;7477;45.222;5.688;2024-01-25T15:32:06;11.60;99.90
14771;DHT22;7477;45.222;5.688;2024-01-25T15:35:25;11.30;99.90
14771;DHT22;7477;45.222;5.688;2024-01-25T15:38:44;11.10;99.90
14771;DHT22;7477;45.222;5.688;2024-01-25T15:42:03;11.00;99.90
14771;DHT22;7477;45.222;5.688;2024-01-25T15:45:23;10.90;99.90
14771;DHT22;7477;45.222;5.688;2024-01-25T15:48:42;10.90;99.90
14771;DHT22;7477;45.222;5.688;2024-01-25T15:52:01;10.90;99.90
14771;DHT22;7477;45.222;5.688;2024-01-25T15:55:21;10.80;99.90
14771;DHT22;7477;45.222;5.688;2024-01-25T15:58:41;10.80;99.90
14771;DHT22;7477;45.222;5.688;2024-01-25T16:02:00;10.80;99.90
14771;DHT22;7477;45.222;5.688;2024-01-25T16:05:20;10.80;99.90
14771;DHT22;7477;45.222;5.688;2024-01-25T16:08:39;10.80;99.90
14771;DHT22;7477;45.222;5.688;2024-01-25T16:11:59;10.80;99.90
14771;DHT22;7477;45.222;5.688;2024-01-25T16:15:18;10.80;99.90
14771;DHT22;7477;45.222;5.688;2024-01-25T16:18:37;10.80;99.90
14771;DHT22;7477;45.222;5.688;2024-01-25T16:21:57;10.80;99.90
14771;DHT22;7477;45.222;5.688;2024-01-25T16:25:17;10.80;99.90
14771;DHT22;7477;45.222;5.688;2024-01-25T16:28:38;10.80;99.90
14771;DHT22;7477;45.222;5.688;2024-01-25T16:31:57;10.80;99.90
14771;DHT22;7477;45.222;5.688;2024-01-25T16:35:16;10.70;99.90
14771;DHT22;7477;45.222;5.688;2024-01-25T16:38:35;10.70;99.90
14771;DHT22;7477;45.222;5.688;2024-01-25T16:41:55;10.70;99.90
14771;DHT22;7477;45.222;5.688;2024-01-25T16:45:14;10.60;99.90
14771;DHT22;7477;45.222;5.688;2024-01-25T16:48:33;10.60;99.90
14771;DHT22;7477;45.222;5.688;2024-01-25T16:51:52;10.60;99.90
14771;DHT22;7477;45.222;5.688;2024-01-25T16:55:11;10.60;99.90
14771;DHT22;7477;45.222;5.688;2024-01-25T16:58:30;10.50;99.90
14771;DHT22;7477;45.222;5.688;2024-01-25T17:01:49;10.60;99.90
14771;DHT22;7477;45.222;5.688;2024-01-25T17:05:08;10.60;99.90
14771;DHT22;7477;45.222;5.688;2024-01-25T17:08:29;10.50;99.90
14771;DHT22;7477;45.222;5.688;2024-01-25T17:11:48;10.50;99.90
14771;DHT22;7477;45.222;5.688;2024-01-25T17:15:08;10.40;99.90
14771;DHT22;7477;45.222;5.688;2024-01-25T17:18:27;9.40;99.90
14771;DHT22;7477;45.222;5.688;2024-01-25T17:21:46;10.40;99.90
14771;DHT22;7477;45.222;5.688;2024-01-25T17:25:06;10.40;99.90
14771;DHT22;7477;45.222;5.688;2024-01-25T17:28:25;10.30;99.90
14771;DHT22;7477;45.222;5.688;2024-01-25T17:31:45;10.30;99.90
14771;DHT22;7477;45.222;5.688;2024-01-25T17:35:04;10.30;99.90
14771;DHT22;7477;45.222;5.688;2024-01-25T17:38:25;10.10;99.90
14771;DHT22;7477;45.222;5.688;2024-01-25T17:41:47;10.10;99.90
14771;DHT22;7477;45.222;5.688;2024-01-25T17:45:06;10.00;99.90
14771;DHT22;7477;45.222;5.688;2024-01-25T17:48:26;10.00;99.90
14771;DHT22;7477;45.222;5.688;2024-01-25T17:51:46;9.80;99.90
14771;DHT22;7477;45.222;5.688;2024-01-25T17:55:08;9.80;99.90
14771;DHT22;7477;45.222;5.688;2024-01-25T17:58:28;9.60;99.90
14771;DHT22;7477;45.222;5.688;2024-01-25T18:01:50;9.60;99.90
14771;DHT22;7477;45.222;5.688;2024-01-25T18:05:09;9.50;99.90
14771;DHT22;7477;45.222;5.688;2024-01-25T18:08:28;9.70;99.90
14771;DHT22;7477;45.222;5.688;2024-01-25T18:11:48;9.50;99.90
14771;DHT22;7477;45.222;5.688;2024-01-25T18:15:08;9.40;99.90
14771;DHT22;7477;45.222;5.688;2024-01-25T18:18:28;9.30;99.90
14771;DHT22;7477;45.222;5.688;2024-01-25T18:21:47;9.40;99.90
14771;DHT22;7477;45.222;5.688;2024-01-25T18:25:07;9.20;99.90
14771;DHT22;7477;45.222;5.688;2024-01-25T18:28:28;9.10;99.90
14771;DHT22;7477;45.222;5.688;2024-01-25T18:31:48;9.10;99.90
14771;DHT22;7477;45.222;5.688;2024-01-25T18:35:08;9.20;99.90
14771;DHT22;7477;45.222;5.688;2024-01-25T18:38:27;9.20;99.90
14771;DHT22;7477;45.222;5.688;2024-01-25T18:41:46;9.30;99.90
14771;DHT22;7477;45.222;5.688;2024-01-25T18:45:06;9.30;99.90
14771;DHT22;7477;45.222;5.688;2024-01-25T18:48:28;9.30;99.90
14771;DHT22;7477;45.222;5.688;2024-01-25T18:51:47;9.30;99.90
14771;DHT22;7477;45.222;5.688;2024-01-25T18:55:06;9.30;99.90
14771;DHT22;7477;45.222;5.688;2024-01-25T18:58:26;9.20;99.90
14771;DHT22;7477;45.222;5.688;2024-01-25T19:01:46;9.30;99.90
14771;DHT22;7477;45.222;5.688;2024-01-25T19:05:06;9.30;99.90
14771;DHT22;7477;45.222;5.688;2024-01-25T19:08:26;9.20;99.90
14771;DHT22;7477;45.222;5.688;2024-01-25T19:11:46;9.10;99.90
14771;DHT22;7477;45.222;5.688;2024-01-25T19:15:06;9.10;99.90
14771;DHT22;7477;45.222;5.688;2024-01-25T19:18:27;9.10;99.90
14771;DHT22;7477;45.222;5.688;2024-01-25T19:21:47;9.20;99.90
14771;DHT22;7477;45.222;5.688;2024-01-25T19:25:08;9.30;99.90
14771;DHT22;7477;45.222;5.688;2024-01-25T19:28:27;9.20;99.90
14771;DHT22;7477;45.222;5.688;2024-01-25T19:31:47;9.00;99.90
14771;DHT22;7477;45.222;5.688;2024-01-25T19:35:06;9.00;99.90
14771;DHT22;7477;45.222;5.688;2024-01-25T19:38:26;8.90;99.90
14771;DHT22;7477;45.222;5.688;2024-01-25T19:41:45;8.80;99.90
14771;DHT22;7477;45.222;5.688;2024-01-25T19:45:05;8.90;99.90
14771;DHT22;7477;45.222;5.688;2024-01-25T19:48:24;8.90;99.90
14771;DHT22;7477;45.222;5.688;2024-01-25T19:51:43;8.90;99.90
14771;DHT22;7477;45.222;5.688;2024-01-25T19:55:03;9.00;99.90
14771;DHT22;7477;45.222;5.688;2024-01-25T19:58:23;8.80;99.90
14771;DHT22;7477;45.222;5.688;2024-01-25T20:01:48;8.70;99.90
14771;DHT22;7477;45.222;5.688;2024-01-25T20:05:09;8.70;99.90
14771;DHT22;7477;45.222;5.688;2024-01-25T20:08:29;8.60;99.90
14771;DHT22;7477;45.222;5.688;2024-01-25T20:11:49;8.70;99.90
14771;DHT22;7477;45.222;5.688;2024-01-25T20:15:09;8.70;99.90
14771;DHT22;7477;45.222;5.688;2024-01-25T20:18:30;8.60;99.90
14771;DHT22;7477;45.222;5.688;2024-01-25T20:21:49;8.50;99.90
14771;DHT22;7477;45.222;5.688;2024-01-25T20:25:08;8.50;99.90
14771;DHT22;7477;45.222;5.688;2024-01-25T20:28:28;8.50;99.90
14771;DHT22;7477;45.222;5.688;2024-01-25T20:31:47;8.40;99.90
14771;DHT22;7477;45.222;5.688;2024-01-25T20:35:06;8.50;99.90
14771;DHT22;7477;45.222;5.688;2024-01-25T20:38:26;8.40;99.90
14771;DHT22;7477;45.222;5.688;2024-01-25T20:41:45;8.30;99.90
14771;DHT22;7477;45.222;5.688;2024-01-25T20:45:04;8.20;99.90
14771;DHT22;7477;45.222;5.688;2024-01-25T20:48:24;8.30;99.90
14771;DHT22;7477;45.222;5.688;2024-01-25T20:51:43;8.30;99.90
14771;DHT22;7477;45.222;5.688;2024-01-25T20:55:04;8.40;99.90
14771;DHT22;7477;45.222;5.688;2024-01-25T20:58:25;8.30;99.90
14771;DHT22;7477;45.222;5.688;2024-01-25T21:01:44;8.30;99.90
14771;DHT22;7477;45.222;5.688;2024-01-25T21:05:04;8.20;99.90
14771;DHT22;7477;45.222;5.688;2024-01-25T21:08:24;8.30;99.90
14771;DHT22;7477;45.222;5.688;2024-01-25T21:11:43;8.20;99.90
14771;DHT22;7477;45.222;5.688;2024-01-25T21:15:03;8.80;99.90
14771;DHT22;7477;45.222;5.688;2024-01-25T21:18:26;9.30;99.90
14771;DHT22;7477;45.222;5.688;2024-01-25T21:21:45;9.10;99.90
14771;DHT22;7477;45.222;5.688;2024-01-25T21:25:04;9.00;99.90
14771;DHT22;7477;45.222;5.688;2024-01-25T21:28:24;9.00;99.90
14771;DHT22;7477;45.222;5.688;2024-01-25T21:31:44;8.80;99.90
14771;DHT22;7477;45.222;5.688;2024-01-25T21:35:04;9.10;99.90